Time;durP1;ratioP1;P1;durP2;ratioP2;P2;SDS_P1;SDS_P2;PMS_P1;PMS_P2;Temp;Humidity;BMP_temperature;BMP_pressure;BME280_temperature;BME280_humidity;BME280_pressure;Samples;Min_cycle;Max_cycle;Signal;HPM_P1;HPM_P2
2021/12/22 00:02:17;;;;;;;11.52;10.15;;;22.80;70.10;;;;;;6206386;28;87993;-59
2021/12/22 00:05:25;;;;;;;10.88;9.75;;;22.80;70.00;;;;;;6207528;28;89176;-59
2021/12/22 00:08:28;;;;;;;10.85;9.70;;;22.80;70.00;;;;;;6215025;28;88040;-59
2021/12/22 00:11:30;;;;;;;10.80;9.70;;;22.80;70.00;;;;;;6208488;28;89262;-59
2021/12/22 00:14:33;;;;;;;11.20;9.80;;;22.80;70.00;;;;;;6207006;28;89090;-59
2021/12/22 00:17:35;;;;;;;10.55;9.55;;;22.70;69.90;;;;;;6206388;28;88341;-59
2021/12/22 00:20:38;;;;;;;10.15;9.15;;;22.80;69.90;;;;;;6186227;28;89135;-59
2021/12/22 00:23:41;;;;;;;10.23;9.18;;;22.70;69.80;;;;;;6209483;28;89051;-59
2021/12/22 00:26:43;;;;;;;11.15;9.43;;;22.70;69.80;;;;;;6206209;28;90039;-59
2021/12/22 00:29:49;;;;;;;11.20;10.00;;;22.70;69.80;;;;;;6207327;28;88273;-59
2021/12/22 00:32:53;;;;;;;10.70;9.15;;;22.70;69.80;;;;;;6207658;28;89123;-60
2021/12/22 00:35:57;;;;;;;10.18;9.07;;;22.70;69.80;;;;;;6205379;28;89003;-59
2021/12/22 00:38:59;;;;;;;9.60;8.70;;;22.70;69.80;;;;;;6208061;28;89180;-59
2021/12/22 00:42:01;;;;;;;10.13;9.13;;;22.70;69.80;;;;;;6200890;28;89072;-59
2021/12/22 00:45:03;;;;;;;10.48;9.20;;;22.70;69.80;;;;;;6200381;28;89124;-59
2021/12/22 00:48:07;;;;;;;9.95;8.88;;;22.70;69.70;;;;;;6208605;28;88746;-60
2021/12/22 00:51:11;;;;;;;10.05;9.05;;;22.70;69.70;;;;;;6204825;28;89038;-59
2021/12/22 00:54:13;;;;;;;9.77;8.63;;;22.70;69.60;;;;;;6206895;28;89122;-59
2021/12/22 00:57:16;;;;;;;9.90;8.90;;;22.70;70.50;;;;;;6193032;28;90228;-60
2021/12/22 01:00:20;;;;;;;9.52;8.57;;;22.70;69.50;;;;;;6193671;28;88931;-59
2021/12/22 01:03:22;;;;;;;9.95;8.95;;;22.70;69.40;;;;;;6187863;28;89251;-60
2021/12/22 01:06:26;;;;;;;10.40;9.38;;;22.70;69.40;;;;;;6200767;28;89394;-59
2021/12/22 01:09:28;;;;;;;10.15;9.15;;;22.70;69.40;;;;;;6207675;28;89047;-59
2021/12/22 01:12:30;;;;;;;9.93;8.93;;;22.70;69.30;;;;;;6194017;28;89060;-59
2021/12/22 01:15:33;;;;;;;10.20;9.20;;;22.70;69.30;;;;;;6205248;28;89051;-59
2021/12/22 01:18:36;;;;;;;10.27;9.27;;;22.70;69.30;;;;;;6207553;28;88359;-59
2021/12/22 01:21:44;;;;;;;9.57;8.68;;;22.70;69.30;;;;;;6204166;28;89016;-59
2021/12/22 01:24:49;;;;;;;10.13;9.13;;;22.70;69.30;;;;;;6198469;28;87978;-59
2021/12/22 01:27:52;;;;;;;10.43;9.32;;;22.70;69.30;;;;;;6183581;28;90017;-59
2021/12/22 01:31:00;;;;;;;10.27;9.10;;;22.70;69.20;;;;;;6203743;28;89100;-59
2021/12/22 01:34:02;;;;;;;10.65;9.65;;;22.70;69.20;;;;;;6195348;28;88231;-60
2021/12/22 01:37:06;;;;;;;10.52;9.43;;;22.70;69.10;;;;;;6205986;28;89069;-59
2021/12/22 01:40:10;;;;;;;10.82;9.82;;;22.70;69.10;;;;;;6209476;28;89150;-59
2021/12/22 01:43:14;;;;;;;10.80;9.70;;;22.70;69.10;;;;;;6215420;28;89263;-59
2021/12/22 01:49:09;;;;;;;10.90;9.80;;;22.70;69.10;;;;;;6207359;28;88737;-59
2021/12/22 01:49:55;;;;;;;10.15;9.15;;;22.70;69.10;;;;;;6203800;28;87443;-59
2021/12/22 01:53:00;;;;;;;11.10;10.00;;;22.70;69.30;;;;;;6205990;28;88684;-59
2021/12/22 01:56:12;;;;;;;11.07;9.88;;;22.70;69.00;;;;;;6205386;28;88988;-59
2021/12/22 01:59:14;;;;;;;10.88;9.77;;;22.70;68.90;;;;;;6205498;28;90566;-59
2021/12/22 02:02:17;;;;;;;11.18;10.07;;;22.70;68.90;;;;;;6195316;28;88979;-59
2021/12/22 02:05:20;;;;;;;11.10;10.00;;;22.70;68.90;;;;;;6201726;28;89063;-59
2021/12/22 02:08:23;;;;;;;11.38;10.27;;;22.70;68.90;;;;;;6210406;28;89024;-59
2021/12/22 02:11:26;;;;;;;10.77;9.68;;;22.70;68.90;;;;;;6195173;28;89459;-59
2021/12/22 02:14:28;;;;;;;11.13;10.02;;;22.70;68.90;;;;;;6201177;28;89030;-59
2021/12/22 02:17:30;;;;;;;11.25;10.15;;;22.70;68.90;;;;;;6194786;28;89023;-59
2021/12/22 02:20:34;;;;;;;10.63;9.63;;;22.70;68.90;;;;;;6194323;28;88367;-60
2021/12/22 02:23:37;;;;;;;10.35;9.35;;;22.70;68.80;;;;;;6193317;28;89185;-59
2021/12/22 02:26:40;;;;;;;11.95;10.63;;;22.60;68.80;;;;;;6201693;28;89151;-59
2021/12/22 02:29:46;;;;;;;11.32;10.15;;;22.70;68.80;;;;;;6205615;28;90166;-59
2021/12/22 02:36:21;;;;;;;10.63;9.63;;;22.70;68.70;;;;;;6207820;28;87232;-59
2021/12/22 02:39:23;;;;;;;10.43;9.43;;;22.70;68.60;;;;;;6206625;28;89204;-59
2021/12/22 02:42:28;;;;;;;11.13;10.02;;;22.70;68.60;;;;;;6201597;28;89097;-59
2021/12/22 02:45:30;;;;;;;10.90;9.80;;;22.70;68.60;;;;;;6213565;28;89059;-59
2021/12/22 02:48:33;;;;;;;9.90;9.00;;;22.60;68.40;;;;;;6209414;28;89130;-59
2021/12/22 02:51:37;;;;;;;10.30;9.30;;;22.70;68.50;;;;;;6208504;28;88697;-59
2021/12/22 02:54:47;;;;;;;10.50;9.40;;;22.70;68.50;;;;;;6197013;28;89155;-59
2021/12/22 02:57:50;;;;;;;10.73;9.63;;;22.70;68.50;;;;;;6194432;28;89239;-60
2021/12/22 03:01:07;;;;;;;10.30;9.30;;;22.70;68.50;;;;;;6201821;28;90025;-60
2021/12/22 03:04:13;;;;;;;10.07;9.05;;;22.60;68.40;;;;;;6196584;28;89146;-59
2021/12/22 03:07:18;;;;;;;10.32;9.23;;;22.70;68.40;;;;;;6196984;28;88150;-59
2021/12/22 03:10:21;;;;;;;10.30;9.30;;;22.60;68.40;;;;;;6198081;28;88961;-59
2021/12/22 03:13:23;;;;;;;10.77;9.68;;;22.60;68.30;;;;;;6206002;28;89445;-59
2021/12/22 03:16:25;;;;;;;10.13;9.13;;;22.70;68.40;;;;;;6193948;28;89123;-59
2021/12/22 03:19:30;;;;;;;10.23;9.25;;;22.60;68.30;;;;;;6209210;28;89173;-59
2021/12/22 03:22:33;;;;;;;10.65;9.55;;;22.60;68.30;;;;;;6208681;28;88327;-59
2021/12/22 03:25:37;;;;;;;10.93;9.82;;;22.60;68.30;;;;;;6208936;28;87737;-59
2021/12/22 03:28:39;;;;;;;11.35;10.15;;;22.60;68.30;;;;;;6206955;28;88917;-59
2021/12/22 03:31:42;;;;;;;10.82;9.73;;;22.60;68.30;;;;;;6196089;28;90318;-59
2021/12/22 03:34:44;;;;;;;11.50;10.40;;;22.60;68.30;;;;;;6209481;28;88968;-60
2021/12/22 03:37:51;;;;;;;11.48;10.30;;;22.60;68.30;;;;;;6205341;28;89059;-59
2021/12/22 03:40:53;;;;;;;10.98;9.93;;;22.60;68.30;;;;;;6217940;28;87957;-59
2021/12/22 03:43:55;;;;;;;11.93;10.73;;;22.60;68.20;;;;;;6202304;28;89095;-59
2021/12/22 03:46:59;;;;;;;11.90;10.80;;;22.60;68.20;;;;;;6203993;28;89088;-59
2021/12/22 03:50:02;;;;;;;11.90;10.70;;;22.60;68.20;;;;;;6211996;28;87936;-60
2021/12/22 03:53:05;;;;;;;12.07;10.88;;;22.60;68.20;;;;;;6206845;28;87440;-59
2021/12/22 03:56:07;;;;;;;11.70;10.55;;;22.60;68.10;;;;;;6195636;28;89242;-59
2021/12/22 03:59:10;;;;;;;12.05;10.75;;;22.60;68.10;;;;;;6193643;28;89040;-59
2021/12/22 04:02:14;;;;;;;11.93;10.73;;;22.60;68.10;;;;;;6192424;28;88923;-60
2021/12/22 04:05:18;;;;;;;12.18;11.02;;;22.70;68.10;;;;;;6207458;28;89023;-59
2021/12/22 04:08:21;;;;;;;12.20;11.00;;;22.70;68.00;;;;;;6208332;28;89039;-59
2021/12/22 04:11:23;;;;;;;12.20;11.00;;;22.70;67.90;;;;;;6206646;28;89080;-59
2021/12/22 04:14:25;;;;;;;12.23;10.82;;;22.70;67.90;;;;;;6188727;28;87934;-59
2021/12/22 04:17:27;;;;;;;12.27;11.07;;;22.70;67.90;;;;;;6199056;28;89120;-60
2021/12/22 04:20:30;;;;;;;12.68;11.48;;;22.70;67.80;;;;;;6196900;28;87951;-59
2021/12/22 04:23:33;;;;;;;12.13;11.00;;;22.70;67.70;;;;;;6207563;28;88315;-59
2021/12/22 04:26:35;;;;;;;12.35;11.13;;;22.70;67.70;;;;;;6195356;28;87991;-59
2021/12/22 04:29:37;;;;;;;11.77;10.57;;;22.80;67.70;;;;;;6195748;28;89071;-59
2021/12/22 04:32:39;;;;;;;12.05;10.85;;;22.70;67.60;;;;;;6193223;28;90025;-59
2021/12/22 04:35:42;;;;;;;11.85;10.65;;;22.70;67.60;;;;;;6202640;28;89081;-59
2021/12/22 04:38:45;;;;;;;11.95;10.77;;;22.70;67.60;;;;;;6194740;28;89038;-59
2021/12/22 04:41:48;;;;;;;11.57;10.48;;;22.70;67.60;;;;;;6204870;28;89041;-59
2021/12/22 04:44:53;;;;;;;11.57;10.48;;;22.70;67.60;;;;;;6202230;28;87843;-59
2021/12/22 04:47:56;;;;;;;12.13;10.93;;;22.70;67.60;;;;;;6192508;28;90502;-59
2021/12/22 04:50:58;;;;;;;11.68;10.57;;;22.70;67.60;;;;;;6206170;28;88386;-60
2021/12/22 04:54:06;;;;;;;11.30;10.20;;;22.70;67.60;;;;;;6194188;28;88279;-59
2021/12/22 04:57:08;;;;;;;10.82;9.75;;;22.70;67.60;;;;;;6212455;28;87939;-59
2021/12/22 05:00:12;;;;;;;11.77;10.68;;;22.70;67.60;;;;;;6200179;28;89031;-59
2021/12/22 05:03:14;;;;;;;11.50;10.40;;;22.70;67.60;;;;;;6205661;28;90174;-59
2021/12/22 05:06:16;;;;;;;11.60;10.50;;;22.70;67.60;;;;;;6202626;28;89047;-60
2021/12/22 05:09:20;;;;;;;10.90;9.90;;;22.70;67.60;;;;;;6195487;28;89154;-59
2021/12/22 05:12:22;;;;;;;10.93;9.93;;;22.70;67.60;;;;;;6200086;28;89149;-60
2021/12/22 05:15:27;;;;;;;11.20;10.10;;;22.70;67.50;;;;;;6202852;28;89120;-60
2021/12/22 05:18:49;;;;;;;10.93;9.82;;;22.70;67.60;;;;;;6205294;28;89062;-59
2021/12/22 05:21:51;;;;;;;10.48;9.48;;;22.70;67.50;;;;;;6198522;28;89395;-60
2021/12/22 05:24:54;;;;;;;10.68;9.68;;;22.70;67.40;;;;;;6205750;28;88406;-59
2021/12/22 05:27:56;;;;;;;10.00;9.00;;;22.70;67.40;;;;;;6206074;28;87770;-59
2021/12/22 05:30:58;;;;;;;10.15;9.15;;;22.70;67.40;;;;;;6204060;28;89050;-59
2021/12/22 05:34:00;;;;;;;10.60;9.60;;;22.70;67.40;;;;;;6199342;28;90019;-60
2021/12/22 05:37:03;;;;;;;10.05;9.05;;;22.70;67.40;;;;;;6210566;28;88303;-59
2021/12/22 05:40:08;;;;;;;10.30;9.27;;;22.70;67.30;;;;;;6201459;28;88038;-59
2021/12/22 05:43:11;;;;;;;10.43;9.43;;;22.70;67.50;;;;;;6200147;28;89081;-59
2021/12/22 05:46:13;;;;;;;10.23;8.80;;;22.80;67.50;;;;;;6209314;28;89099;-59
2021/12/22 05:49:15;;;;;;;9.52;8.63;;;22.80;67.40;;;;;;6205946;28;89633;-59
2021/12/22 05:52:17;;;;;;;9.75;8.75;;;22.80;67.10;;;;;;6204405;28;89068;-59
2021/12/22 05:55:21;;;;;;;9.82;8.93;;;22.80;67.00;;;;;;6206581;28;88344;-58
2021/12/22 05:58:23;;;;;;;10.00;9.00;;;22.80;65.60;;;;;;6199758;28;89196;-59
2021/12/22 06:01:26;;;;;;;9.25;8.35;;;22.80;66.20;;;;;;6194576;28;89034;-59
2021/12/22 06:04:28;;;;;;;10.32;8.80;;;22.90;66.50;;;;;;6204957;28;89977;-59
2021/12/22 06:07:30;;;;;;;10.55;9.02;;;22.80;66.40;;;;;;6195340;28;88983;-59
2021/12/22 06:10:35;;;;;;;8.88;7.97;;;22.80;66.50;;;;;;6214443;28;89380;-59
2021/12/22 06:13:37;;;;;;;9.30;8.40;;;22.90;66.60;;;;;;6195248;28;88057;-59
2021/12/22 06:16:39;;;;;;;8.90;8.02;;;22.80;66.60;;;;;;6204218;28;89163;-59
2021/12/22 06:19:41;;;;;;;9.80;8.13;;;22.80;66.60;;;;;;6205798;28;87987;-59
2021/12/22 06:22:43;;;;;;;9.55;8.27;;;22.80;66.60;;;;;;6191687;28;89049;-59
2021/12/22 06:25:46;;;;;;;8.60;7.80;;;22.80;66.60;;;;;;6205452;28;88274;-59
2021/12/22 06:28:50;;;;;;;8.90;8.00;;;22.80;66.70;;;;;;6205479;28;87699;-59
2021/12/22 06:31:52;;;;;;;8.63;7.63;;;22.70;66.70;;;;;;6190673;28;89169;-59
2021/12/22 06:34:54;;;;;;;8.70;7.90;;;22.70;66.70;;;;;;6183275;28;88836;-59
2021/12/22 06:37:57;;;;;;;9.82;8.55;;;22.70;66.70;;;;;;6205279;28;88885;-59
2021/12/22 06:41:00;;;;;;;8.75;7.70;;;22.70;66.70;;;;;;6206059;28;88306;-59
2021/12/22 06:44:05;;;;;;;8.25;7.35;;;22.70;66.70;;;;;;6206409;28;90467;-59
2021/12/22 06:47:07;;;;;;;8.02;7.18;;;22.70;66.70;;;;;;6204736;28;89203;-59
2021/12/22 06:50:10;;;;;;;7.93;7.13;;;22.70;66.80;;;;;;6204712;28;89015;-59
2021/12/22 06:53:12;;;;;;;7.75;6.95;;;22.70;66.80;;;;;;6205652;28;89074;-59
2021/12/22 06:56:16;;;;;;;7.70;6.80;;;22.70;66.80;;;;;;6193323;28;88428;-58
2021/12/22 06:59:17;;;;;;;7.57;6.88;;;22.70;66.90;;;;;;6205754;28;88019;-59
2021/12/22 07:02:19;;;;;;;7.95;7.15;;;22.70;66.90;;;;;;6196684;28;89119;-59
2021/12/22 07:05:22;;;;;;;7.72;6.90;;;22.70;66.90;;;;;;6208287;28;89975;-59
2021/12/22 07:08:23;;;;;;;7.65;6.85;;;22.70;66.90;;;;;;6208501;28;87885;-59
2021/12/22 07:11:27;;;;;;;7.35;6.55;;;22.70;66.90;;;;;;6210501;28;87996;-59
2021/12/22 07:14:29;;;;;;;7.22;6.53;;;22.70;66.90;;;;;;6207841;28;89029;-59
2021/12/22 07:17:31;;;;;;;7.38;6.65;;;22.70;66.90;;;;;;6206040;28;89000;-59
2021/12/22 07:20:33;;;;;;;7.72;6.97;;;22.80;66.90;;;;;;6199180;28;89141;-59
2021/12/22 07:23:35;;;;;;;7.80;6.47;;;22.70;66.90;;;;;;6197597;28;89332;-59
2021/12/22 07:26:39;;;;;;;7.32;6.63;;;22.70;66.80;;;;;;6209249;28;88216;-59
2021/12/22 07:29:41;;;;;;;6.78;6.07;;;22.70;66.80;;;;;;6209203;28;89070;-59
2021/12/22 07:32:43;;;;;;;7.25;6.55;;;22.80;66.90;;;;;;6218056;28;88892;-59
2021/12/22 07:36:00;;;;;;;6.88;6.18;;;22.80;66.90;;;;;;6210271;28;89979;-59
2021/12/22 07:39:04;;;;;;;7.00;6.30;;;22.80;66.80;;;;;;6207922;28;89077;-59
2021/12/22 07:42:08;;;;;;;6.82;6.13;;;22.80;66.80;;;;;;6195836;28;89448;-59
2021/12/22 07:45:11;;;;;;;6.40;5.57;;;22.80;66.90;;;;;;6203918;28;89368;-59
2021/12/22 07:48:13;;;;;;;6.82;6.13;;;22.80;66.90;;;;;;6208780;28;88766;-59
2021/12/22 07:51:15;;;;;;;6.97;6.28;;;22.80;66.90;;;;;;6209621;28;89272;-59
2021/12/22 07:54:17;;;;;;;6.32;5.72;;;22.80;66.90;;;;;;6193811;28;88382;-59
2021/12/22 07:57:20;;;;;;;6.95;5.95;;;22.80;66.90;;;;;;6197811;28;88346;-59
2021/12/22 08:00:22;;;;;;;6.20;5.60;;;22.80;66.90;;;;;;6203600;28;89161;-59
2021/12/22 08:03:26;;;;;;;6.25;5.65;;;22.80;66.90;;;;;;6201184;28;89344;-59
2021/12/22 08:06:28;;;;;;;6.15;5.55;;;22.80;66.90;;;;;;6189021;28;89986;-59
2021/12/22 08:09:30;;;;;;;6.20;5.60;;;22.80;66.90;;;;;;6191840;28;88976;-59
2021/12/22 08:12:33;;;;;;;6.03;5.43;;;22.90;67.00;;;;;;6197105;28;89063;-59
2021/12/22 08:15:35;;;;;;;5.88;5.28;;;22.90;67.00;;;;;;6196506;28;89141;-59
2021/12/22 08:18:37;;;;;;;5.80;5.20;;;22.90;67.00;;;;;;6195939;28;87867;-59
2021/12/22 08:21:39;;;;;;;5.53;5.03;;;22.90;67.10;;;;;;6207795;28;89336;-59
2021/12/22 08:24:41;;;;;;;5.55;5.05;;;22.90;67.10;;;;;;6197619;28;87900;-59
2021/12/22 08:27:45;;;;;;;5.22;4.72;;;22.90;67.10;;;;;;6205592;28;87186;-59
2021/12/22 08:30:47;;;;;;;5.28;4.78;;;22.90;67.00;;;;;;6207354;28;88089;-59
2021/12/22 08:33:49;;;;;;;5.55;4.95;;;22.90;67.10;;;;;;6206690;28;89095;-59
2021/12/22 08:40:14;;;;;;;5.43;4.93;;;22.90;67.10;;;;;;6196231;28;87218;-59
2021/12/22 08:43:18;;;;;;;5.35;4.78;;;22.90;67.20;;;;;;6200812;28;89140;-59
2021/12/22 08:46:20;;;;;;;5.55;5.00;;;22.90;67.20;;;;;;6202978;28;89196;-59
2021/12/22 08:49:23;;;;;;;6.47;4.82;;;22.90;67.30;;;;;;6191579;28;89381;-59
2021/12/22 08:52:25;;;;;;;5.95;5.28;;;23.00;67.30;;;;;;6207610;28;89345;-58
2021/12/22 08:55:27;;;;;;;6.15;4.80;;;23.00;67.40;;;;;;6194949;28;89185;-59
2021/12/22 08:58:31;;;;;;;5.28;4.78;;;22.90;67.30;;;;;;6206579;28;88347;-59
2021/12/22 09:01:33;;;;;;;4.95;4.47;;;23.00;67.40;;;;;;6207673;28;89063;-59
2021/12/22 09:04:35;;;;;;;5.10;4.60;;;23.00;67.40;;;;;;6193487;28;89102;-59
2021/12/22 09:07:37;;;;;;;5.22;4.72;;;23.00;67.40;;;;;;6220160;28;88830;-59
2021/12/22 09:10:39;;;;;;;4.97;4.47;;;23.00;67.40;;;;;;6194605;28;89432;-59
2021/12/22 09:13:43;;;;;;;5.22;4.70;;;23.00;67.40;;;;;;6194402;28;89059;-59
2021/12/22 09:16:45;;;;;;;4.90;4.50;;;23.00;67.40;;;;;;6207628;28;89123;-59
2021/12/22 09:19:48;;;;;;;5.07;4.57;;;23.00;67.40;;;;;;6213334;28;88785;-59
2021/12/22 09:22:50;;;;;;;4.47;4.07;;;23.00;67.40;;;;;;6213971;28;89099;-59
2021/12/22 09:25:52;;;;;;;4.88;4.47;;;23.00;67.40;;;;;;6224898;28;88315;-59
2021/12/22 09:28:56;;;;;;;4.72;4.32;;;23.00;67.40;;;;;;6221345;28;88296;-58
2021/12/22 09:31:58;;;;;;;4.85;4.45;;;23.10;67.40;;;;;;6207807;28;89140;-59
2021/12/22 09:35:00;;;;;;;4.57;4.18;;;23.10;67.50;;;;;;6204674;28;89015;-59
2021/12/22 09:38:03;;;;;;;4.40;4.00;;;23.10;67.50;;;;;;6203975;28;90108;-59
2021/12/22 09:41:05;;;;;;;4.63;4.22;;;23.00;67.40;;;;;;6205806;28;89146;-59
2021/12/22 09:44:09;;;;;;;4.65;4.22;;;23.00;67.40;;;;;;6194563;28;89072;-59
2021/12/22 09:47:11;;;;;;;4.70;4.20;;;23.00;67.50;;;;;;6204955;28;88163;-59
2021/12/22 09:50:13;;;;;;;4.47;4.07;;;23.00;67.50;;;;;;6202475;28;89745;-59
2021/12/22 09:53:18;;;;;;;4.30;3.90;;;23.00;67.60;;;;;;6193926;28;89148;-59
2021/12/22 09:56:22;;;;;;;4.78;4.25;;;23.00;67.60;;;;;;6216102;28;89365;-59
2021/12/22 09:59:27;;;;;;;4.70;4.30;;;23.00;67.60;;;;;;6183402;28;88520;-59
2021/12/22 10:02:30;;;;;;;4.78;4.22;;;23.00;67.70;;;;;;6192527;28;89038;-59
2021/12/22 10:05:32;;;;;;;4.35;3.90;;;23.00;67.60;;;;;;6206478;28;89588;-59
2021/12/22 10:08:38;;;;;;;4.90;4.40;;;23.00;67.70;;;;;;6206655;28;90105;-59
2021/12/22 10:11:44;;;;;;;4.40;4.00;;;23.00;67.70;;;;;;6219962;28;89128;-59
2021/12/22 10:14:53;;;;;;;4.15;3.78;;;23.00;67.70;;;;;;6206873;28;87936;-59
2021/12/22 10:18:08;;;;;;;4.38;3.97;;;23.00;67.70;;;;;;6198374;28;89369;-59
2021/12/22 10:21:13;;;;;;;3.67;3.35;;;23.00;67.70;;;;;;6199239;28;88964;-59
2021/12/22 10:24:15;;;;;;;4.28;3.80;;;23.00;67.80;;;;;;6210672;28;89110;-59
2021/12/22 10:27:21;;;;;;;4.20;3.72;;;23.00;67.80;;;;;;6212046;28;89086;-59
2021/12/22 10:30:45;;;;;;;3.80;3.50;;;23.00;67.80;;;;;;6193590;28;87222;-59
2021/12/22 10:33:48;;;;;;;4.10;3.70;;;23.00;67.80;;;;;;6193538;28;89371;-59
2021/12/22 10:36:51;;;;;;;4.13;3.72;;;23.00;67.90;;;;;;6205730;28;89027;-59
2021/12/22 10:39:53;;;;;;;4.18;3.78;;;23.00;67.80;;;;;;6198614;28;90049;-59
2021/12/22 10:42:56;;;;;;;3.97;3.60;;;23.10;67.80;;;;;;6201094;28;89332;-59
2021/12/22 10:46:02;;;;;;;4.07;3.67;;;23.10;67.80;;;;;;6196391;28;89004;-59
2021/12/22 10:49:17;;;;;;;3.78;3.40;;;23.10;67.70;;;;;;6196592;28;87982;-59
2021/12/22 10:52:25;;;;;;;3.80;3.40;;;23.00;67.70;;;;;;6207766;28;89079;-59
2021/12/22 10:55:37;;;;;;;3.50;3.20;;;23.10;67.80;;;;;;6201994;28;89128;-59
2021/12/22 10:58:39;;;;;;;4.03;3.63;;;23.00;67.70;;;;;;6204772;28;89084;-59
2021/12/22 11:01:57;;;;;;;3.70;3.40;;;23.10;67.80;;;;;;6203088;28;87116;-59
2021/12/22 11:05:03;;;;;;;3.50;3.20;;;23.10;67.80;;;;;;6204149;28;87886;-59
2021/12/22 11:08:18;;;;;;;3.70;3.40;;;23.10;67.80;;;;;;6195968;28;88801;-59
2021/12/22 11:11:20;;;;;;;3.70;3.40;;;23.10;67.70;;;;;;6207505;28;89978;-59
2021/12/22 11:14:24;;;;;;;3.53;3.22;;;23.10;67.70;;;;;;6209101;28;89112;-58
2021/12/22 11:17:28;;;;;;;3.45;3.15;;;23.10;67.70;;;;;;6209597;28;88993;-59
2021/12/22 11:20:31;;;;;;;3.53;3.22;;;23.10;67.70;;;;;;6204486;28;89082;-59
2021/12/22 11:23:34;;;;;;;3.33;3.03;;;23.10;67.70;;;;;;6185168;28;89305;-59
2021/12/22 11:26:36;;;;;;;3.30;3.00;;;23.10;67.80;;;;;;6209968;28;89516;-59
2021/12/22 11:29:42;;;;;;;3.50;3.20;;;23.10;67.90;;;;;;6196629;28;89375;-59
2021/12/22 11:32:47;;;;;;;3.25;2.95;;;23.10;67.90;;;;;;6207471;28;88474;-59
2021/12/22 11:35:50;;;;;;;3.97;3.35;;;23.10;67.90;;;;;;6196830;28;89401;-59
2021/12/22 11:38:53;;;;;;;3.47;3.17;;;23.10;67.90;;;;;;6195032;28;89411;-59
2021/12/22 11:41:57;;;;;;;3.35;3.05;;;23.10;67.90;;;;;;6193893;28;90099;-59
2021/12/22 11:45:08;;;;;;;3.17;2.88;;;23.10;67.90;;;;;;6195948;28;89540;-59
2021/12/22 11:48:11;;;;;;;3.50;3.20;;;23.10;67.90;;;;;;6194637;28;89067;-59
2021/12/22 11:55:22;;;;;;;2.90;2.70;;;23.10;67.90;;;;;;6198643;28;87984;-59
2021/12/22 11:58:26;;;;;;;3.42;2.75;;;23.10;67.90;;;;;;6193589;28;89520;-59
2021/12/22 12:01:28;;;;;;;3.38;3.08;;;23.20;68.10;;;;;;6208326;28;89462;-59
2021/12/22 12:04:35;;;;;;;3.75;3.42;;;23.10;67.90;;;;;;6206662;28;88350;-59
2021/12/22 12:07:51;;;;;;;3.38;3.08;;;23.20;68.00;;;;;;6195563;28;89257;-59
2021/12/22 12:10:56;;;;;;;3.17;2.88;;;23.10;67.90;;;;;;6184580;28;89188;-59
2021/12/22 12:14:05;;;;;;;2.92;2.72;;;23.20;68.00;;;;;;6207859;28;90417;-59
2021/12/22 12:24:29;;;;;;;3.35;2.90;;;23.20;67.90;;;;;;6209035;28;87187;-59
2021/12/22 12:27:40;;;;;;;3.13;2.83;;;23.20;67.90;;;;;;6203361;28;89040;-59
2021/12/22 12:30:45;;;;;;;3.10;2.80;;;23.20;68.00;;;;;;6189820;28;88231;-59
2021/12/22 12:33:47;;;;;;;3.00;2.65;;;23.20;68.00;;;;;;6196707;28;89117;-60
2021/12/22 12:36:50;;;;;;;2.92;2.72;;;23.20;67.90;;;;;;6208769;28;88343;-59
2021/12/22 12:39:55;;;;;;;2.95;2.70;;;23.30;68.10;;;;;;6193241;28;89113;-59
2021/12/22 12:42:58;;;;;;;2.88;2.60;;;23.30;68.00;;;;;;6206160;28;89063;-59
2021/12/22 12:46:00;;;;;;;3.10;2.80;;;23.30;67.90;;;;;;6196602;28;89957;-59
2021/12/22 12:49:43;;;;;;;2.88;2.63;;;23.30;68.00;;;;;;6194790;28;89157;-59
2021/12/22 12:52:47;;;;;;;2.88;2.60;;;23.30;68.00;;;;;;6207126;28;88308;-59
2021/12/22 12:56:07;;;;;;;3.03;2.50;;;23.30;67.90;;;;;;6230493;28;89224;-59
2021/12/22 12:59:11;;;;;;;2.95;2.70;;;23.30;68.00;;;;;;6197441;28;88189;-59
2021/12/22 13:02:20;;;;;;;2.85;2.65;;;23.30;67.90;;;;;;6191158;28;88017;-59
2021/12/22 13:05:22;;;;;;;3.05;2.53;;;23.30;67.90;;;;;;6207753;28;89227;-59
2021/12/22 13:08:32;;;;;;;2.67;2.47;;;23.30;67.90;;;;;;6188380;28;87562;-59
2021/12/22 13:11:34;;;;;;;3.00;2.40;;;23.30;67.90;;;;;;6202336;28;89358;-59
2021/12/22 13:17:59;;;;;;;2.72;2.53;;;23.30;67.90;;;;;;6193925;28;88147;-59
2021/12/22 13:21:07;;;;;;;2.85;2.65;;;23.30;67.90;;;;;;6200233;28;89244;-59
2021/12/22 13:24:19;;;;;;;2.72;2.53;;;23.30;67.90;;;;;;6199729;28;89163;-59
2021/12/22 13:27:28;;;;;;;2.70;2.50;;;23.30;67.90;;;;;;6205367;28;89056;-59
2021/12/22 13:30:32;;;;;;;2.80;2.60;;;23.30;67.90;;;;;;6205863;28;89460;-59
2021/12/22 13:33:37;;;;;;;3.05;2.78;;;23.30;67.80;;;;;;6207094;28;89270;-59
2021/12/22 13:36:39;;;;;;;2.40;2.20;;;23.30;67.80;;;;;;6207065;28;89072;-59
2021/12/22 13:39:45;;;;;;;2.85;2.50;;;23.30;67.80;;;;;;6204979;28;88332;-59
2021/12/22 13:42:47;;;;;;;2.47;2.28;;;23.30;67.80;;;;;;6194802;28;89174;-59
2021/12/22 13:45:50;;;;;;;2.85;2.60;;;23.30;67.80;;;;;;6206582;28;89026;-59
2021/12/22 13:48:55;;;;;;;3.17;2.50;;;23.30;67.70;;;;;;6206206;28;90090;-60
2021/12/22 13:51:57;;;;;;;2.33;2.10;;;23.30;67.70;;;;;;6205803;28;87962;-59
2021/12/22 13:55:00;;;;;;;2.60;2.40;;;23.30;67.70;;;;;;6198567;28;89624;-59
2021/12/22 13:58:35;;;;;;;2.78;2.17;;;23.30;67.70;;;;;;6208525;28;89101;-59
2021/12/22 14:01:40;;;;;;;2.60;2.40;;;23.30;67.70;;;;;;6196753;28;88997;-59
2021/12/22 14:04:42;;;;;;;3.33;2.40;;;23.30;67.70;;;;;;6196765;28;89117;-59
2021/12/22 14:07:45;;;;;;;2.30;2.10;;;23.30;67.80;;;;;;6190408;28;89168;-59
2021/12/22 14:10:48;;;;;;;2.63;2.30;;;23.30;67.90;;;;;;6207644;28;88373;-59
2021/12/22 14:13:50;;;;;;;2.50;2.30;;;23.30;67.90;;;;;;6206468;28;87984;-59
2021/12/22 14:16:55;;;;;;;2.53;2.00;;;23.30;67.90;;;;;;6192501;28;89422;-59
2021/12/22 14:20:10;;;;;;;3.63;2.10;;;23.30;67.90;;;;;;6205328;28;90331;-59
2021/12/22 14:23:12;;;;;;;2.35;2.10;;;23.30;67.90;;;;;;6192616;28;89272;-59
2021/12/22 14:26:16;;;;;;;2.35;2.13;;;23.30;67.90;;;;;;6208072;28;88563;-59
2021/12/22 14:29:18;;;;;;;2.67;2.15;;;23.30;67.90;;;;;;6195387;28;89896;-59
2021/12/22 14:32:27;;;;;;;2.30;2.10;;;23.30;68.10;;;;;;6203103;28;89071;-59
2021/12/22 14:35:31;;;;;;;2.45;2.25;;;23.30;67.90;;;;;;6183338;28;89135;-59
2021/12/22 14:38:36;;;;;;;2.30;2.10;;;23.30;68.00;;;;;;6186340;28;89511;-59
2021/12/22 14:41:39;;;;;;;2.60;2.33;;;23.40;68.10;;;;;;6196780;28;88920;-60
2021/12/22 14:44:41;;;;;;;2.38;2.17;;;23.40;68.10;;;;;;6185407;28;89082;-59
2021/12/22 14:47:43;;;;;;;2.70;2.08;;;23.30;68.00;;;;;;6219077;28;89090;-59
2021/12/22 14:51:01;;;;;;;2.35;2.08;;;23.30;68.10;;;;;;6203546;28;90002;-59
2021/12/22 14:54:05;;;;;;;3.47;2.00;;;23.40;68.40;;;;;;6219144;28;88007;-59
2021/12/22 14:57:21;;;;;;;3.85;2.30;;;23.40;68.30;;;;;;6227200;28;89331;-59
2021/12/22 15:00:23;;;;;;;2.20;2.00;;;23.40;68.20;;;;;;6208841;28;89158;-59
2021/12/22 15:03:25;;;;;;;2.10;1.90;;;23.40;68.30;;;;;;6203992;28;89052;-59
2021/12/22 15:06:28;;;;;;;3.00;2.10;;;23.30;68.10;;;;;;6203040;28;89052;-59
2021/12/22 15:09:30;;;;;;;2.83;2.00;;;23.30;68.10;;;;;;6209533;28;88305;-59
2021/12/22 15:12:34;;;;;;;2.28;2.08;;;23.30;68.10;;;;;;6222607;28;88337;-59
2021/12/22 15:15:36;;;;;;;4.13;2.10;;;23.30;68.00;;;;;;6185103;28;87827;-59
2021/12/22 15:18:38;;;;;;;2.78;2.10;;;23.30;68.10;;;;;;6197420;28;89100;-59
2021/12/22 15:21:40;;;;;;;2.80;2.08;;;23.30;68.00;;;;;;6206249;28;90080;-59
2021/12/22 15:24:42;;;;;;;2.72;2.22;;;23.30;68.00;;;;;;6208904;28;89097;-59
2021/12/22 15:27:47;;;;;;;2.42;2.10;;;23.30;68.10;;;;;;6200248;28;89111;-59
2021/12/22 15:30:49;;;;;;;2.50;2.30;;;23.30;68.00;;;;;;6185678;28;89070;-59
2021/12/22 15:33:51;;;;;;;2.33;2.13;;;23.30;68.00;;;;;;6203559;28;88060;-59
2021/12/22 15:36:54;;;;;;;2.60;2.20;;;23.30;68.00;;;;;;6208154;28;89225;-59
2021/12/22 15:39:56;;;;;;;2.42;2.22;;;23.30;68.00;;;;;;6196109;28;89115;-59
2021/12/22 15:42:59;;;;;;;2.40;2.13;;;23.30;68.00;;;;;;6196156;28;88335;-59
2021/12/22 15:46:01;;;;;;;2.40;2.20;;;23.30;68.10;;;;;;6208742;28;89060;-60
2021/12/22 15:49:04;;;;;;;2.38;2.17;;;23.30;68.00;;;;;;6204438;28;89835;-59
2021/12/22 15:52:06;;;;;;;2.30;2.10;;;23.30;68.00;;;;;;6206937;28;89850;-59
2021/12/22 15:55:09;;;;;;;2.80;2.50;;;23.30;68.00;;;;;;6207880;28;89341;-59
2021/12/22 15:58:13;;;;;;;2.67;2.00;;;23.30;67.90;;;;;;6208296;28;89372;-59
2021/12/22 16:01:15;;;;;;;2.85;2.42;;;23.30;67.90;;;;;;6193829;28;89134;-59
2021/12/22 16:04:17;;;;;;;2.40;2.20;;;23.30;67.90;;;;;;6208980;28;89069;-59
2021/12/22 16:07:19;;;;;;;2.40;2.20;;;23.30;67.90;;;;;;6220260;28;87978;-59
2021/12/22 16:10:23;;;;;;;2.50;2.13;;;23.30;67.90;;;;;;6195391;28;89465;-59
2021/12/22 16:13:27;;;;;;;2.88;2.22;;;23.30;67.80;;;;;;6208884;28;88676;-59
2021/12/22 16:16:29;;;;;;;2.40;2.20;;;23.30;67.80;;;;;;6199031;28;89057;-59